createdAt,value
2022-12-03T00:00:15.163Z,27.20
2022-12-03T00:01:15.059Z,26.00
2022-12-03T00:02:15.108Z,26.20
2022-12-03T00:03:15.012Z,25.20
2022-12-03T00:04:14.809Z,25.70
2022-12-03T00:05:14.990Z,26.10
2022-12-03T00:06:15.334Z,25.80
2022-12-03T00:07:18.046Z,26.20
2022-12-03T00:08:16.370Z,26.40
2022-12-03T00:09:14.940Z,25.90
2022-12-03T00:10:14.879Z,26.10
2022-12-03T00:11:17.130Z,27.60
2022-12-03T00:12:16.603Z,26.00
2022-12-03T00:13:14.932Z,26.40
2022-12-03T00:14:14.833Z,27.70
2022-12-03T00:15:17.362Z,26.90
2022-12-03T00:16:22.686Z,27.10
2022-12-03T00:17:15.139Z,26.90
2022-12-03T00:18:15.760Z,26.70
2022-12-03T00:19:14.980Z,27.60
2022-12-03T00:20:16.008Z,27.30
2022-12-03T00:21:14.720Z,26.50
2022-12-03T00:22:14.936Z,27.70
2022-12-03T00:23:15.589Z,27.20
2022-12-03T00:24:22.074Z,27.30
2022-12-03T00:25:14.923Z,28.50
2022-12-03T00:26:17.445Z,27.80
2022-12-03T00:27:15.146Z,28.50
2022-12-03T00:28:29.385Z,27.60
2022-12-03T00:29:14.957Z,27.20
2022-12-03T00:30:15.779Z,28.10
2022-12-03T00:31:14.797Z,28.00
2022-12-03T00:32:15.003Z,26.90
2022-12-03T00:33:14.770Z,28.60
2022-12-03T00:34:25.483Z,27.70
2022-12-03T00:35:14.672Z,28.60
2022-12-03T00:36:15.267Z,28.70
2022-12-03T00:37:14.383Z,28.70
2022-12-03T00:38:17.630Z,28.40
2022-12-03T00:39:14.604Z,28.70
2022-12-03T00:40:15.157Z,28.20
2022-12-03T00:41:16.459Z,29.10
2022-12-03T00:42:38.899Z,27.80
2022-12-03T00:43:17.352Z,27.30
2022-12-03T00:44:15.544Z,28.20
2022-12-03T00:45:18.033Z,27.90
2022-12-03T00:46:19.693Z,28.10
2022-12-03T00:47:20.611Z,28.30
2022-12-03T00:48:14.569Z,28.20
2022-12-03T00:49:15.692Z,27.40
2022-12-03T00:50:17.127Z,27.10
2022-12-03T00:51:14.580Z,28.00
2022-12-03T00:52:14.385Z,27.70
2022-12-03T00:53:16.963Z,27.60
2022-12-03T00:54:14.711Z,26.20
2022-12-03T00:55:14.302Z,26.50
2022-12-03T00:56:14.329Z,25.90
2022-12-03T00:57:17.806Z,26.60
2022-12-03T00:58:15.542Z,26.40
2022-12-03T00:59:16.078Z,26.50
2022-12-03T01:00:15.435Z,27.40
2022-12-03T01:01:14.686Z,26.60
2022-12-03T01:02:17.722Z,27.10
2022-12-03T01:03:14.106Z,27.20
2022-12-03T01:04:36.697Z,26.80
2022-12-03T01:05:17.849Z,27.80
2022-12-03T01:06:14.065Z,27.80
2022-12-03T01:07:22.881Z,25.90
2022-12-03T01:08:23.797Z,26.60
2022-12-03T01:09:14.815Z,26.30
2022-12-03T01:10:14.060Z,24.90
2022-12-03T01:11:14.214Z,25.50
2022-12-03T01:12:14.523Z,25.70
2022-12-03T01:13:13.999Z,25.70
2022-12-03T01:14:14.430Z,24.90
2022-12-03T01:15:14.495Z,25.50
2022-12-03T01:16:17.620Z,25.60
2022-12-03T01:17:13.946Z,26.10
2022-12-03T01:18:15.178Z,25.80
2022-12-03T01:19:22.527Z,24.90
2022-12-03T01:20:16.322Z,26.30
2022-12-03T01:21:14.389Z,26.80
2022-12-03T01:22:16.722Z,25.90
2022-12-03T01:23:15.052Z,26.10
2022-12-03T01:24:14.804Z,26.60
2022-12-03T01:25:14.622Z,25.40
2022-12-03T01:26:21.308Z,25.60
2022-12-03T01:27:14.915Z,25.80
2022-12-03T01:28:17.403Z,26.90
2022-12-03T01:29:16.016Z,26.00
2022-12-03T01:30:15.163Z,25.60
2022-12-03T01:31:13.826Z,25.50
2022-12-03T01:33:23.550Z,24.50
2022-12-03T01:34:23.542Z,24.90
2022-12-03T01:35:23.494Z,25.30
2022-12-03T01:36:23.531Z,25.60
2022-12-03T01:37:23.535Z,26.10
2022-12-03T01:38:23.507Z,25.70
2022-12-03T01:39:23.459Z,25.60
2022-12-03T01:40:23.454Z,26.00
2022-12-03T01:41:23.425Z,25.40
2022-12-03T01:42:23.470Z,24.90
2022-12-03T01:43:23.416Z,25.80
2022-12-03T01:44:23.390Z,25.70
2022-12-03T01:45:23.399Z,25.50
2022-12-03T01:46:23.473Z,25.30
2022-12-03T01:47:23.364Z,25.50
2022-12-03T01:48:23.361Z,26.10
2022-12-03T01:49:23.357Z,25.90
2022-12-03T01:50:23.335Z,26.10
2022-12-03T01:51:23.366Z,25.90
2022-12-03T01:52:23.302Z,25.90
2022-12-03T01:53:23.306Z,25.10
2022-12-03T01:54:23.305Z,26.70
2022-12-03T01:55:23.291Z,26.80
2022-12-03T01:56:23.295Z,27.40
2022-12-03T01:57:23.276Z,28.50
2022-12-03T01:58:23.235Z,27.50
2022-12-03T01:59:23.225Z,27.20
2022-12-03T02:00:23.220Z,27.40
2022-12-03T02:01:23.330Z,26.20
2022-12-03T02:02:23.233Z,25.70
2022-12-03T02:03:23.209Z,27.70
2022-12-03T02:04:23.198Z,26.80
2022-12-03T02:05:31.768Z,28.00
2022-12-03T02:06:23.164Z,27.30
2022-12-03T02:07:23.180Z,26.90
2022-12-03T02:08:23.131Z,27.00
2022-12-03T02:09:23.115Z,27.10
2022-12-03T02:10:23.120Z,27.10
2022-12-03T02:11:23.104Z,26.50
2022-12-03T02:12:23.100Z,28.20
2022-12-03T02:13:23.129Z,27.60
2022-12-03T02:14:23.055Z,27.80
2022-12-03T02:15:23.055Z,27.90
2022-12-03T02:16:23.177Z,26.80
2022-12-03T02:17:23.042Z,28.30
2022-12-03T02:18:23.010Z,27.50
2022-12-03T02:19:23.002Z,27.20
2022-12-03T02:20:22.988Z,27.90
2022-12-03T02:21:23.020Z,28.30
2022-12-03T02:22:22.975Z,25.80
2022-12-03T02:23:22.981Z,27.60
2022-12-03T02:24:22.944Z,27.50
2022-12-03T02:25:22.939Z,28.00
2022-12-03T02:26:22.941Z,28.70
2022-12-03T02:27:22.952Z,28.50
2022-12-03T02:28:22.913Z,28.70
2022-12-03T02:29:22.919Z,28.40
2022-12-03T02:30:22.883Z,28.00
2022-12-03T02:31:23.012Z,29.10
2022-12-03T02:32:22.858Z,27.80
2022-12-03T02:33:22.863Z,27.40
2022-12-03T02:34:22.850Z,26.60
2022-12-03T02:35:22.846Z,25.50
2022-12-03T02:36:22.814Z,25.70
2022-12-03T02:37:22.800Z,26.50
2022-12-03T02:38:22.804Z,25.50
2022-12-03T02:39:22.828Z,25.70
2022-12-03T02:40:22.787Z,25.10
2022-12-03T02:41:22.759Z,24.40
2022-12-03T02:42:22.762Z,25.50
2022-12-03T02:43:22.737Z,23.90
2022-12-03T02:44:22.733Z,24.70
2022-12-03T02:45:22.788Z,24.80
2022-12-03T02:46:22.761Z,24.00
2022-12-03T02:47:22.691Z,23.80
2022-12-03T02:48:22.677Z,22.90
2022-12-03T02:49:22.681Z,22.50
2022-12-03T02:50:22.681Z,23.90
2022-12-03T02:51:22.680Z,22.60
2022-12-03T02:52:22.656Z,22.80
2022-12-03T02:53:22.673Z,23.40
2022-12-03T02:54:22.619Z,23.80
2022-12-03T02:55:22.605Z,24.10
2022-12-03T02:56:22.591Z,24.00
2022-12-03T02:57:22.604Z,24.30
2022-12-03T02:58:22.587Z,23.80
2022-12-03T02:59:22.564Z,24.50
2022-12-03T03:00:22.546Z,25.00
2022-12-03T03:01:22.644Z,23.40
2022-12-03T03:02:22.614Z,23.10
2022-12-03T03:03:22.544Z,23.90
2022-12-03T03:04:22.502Z,23.10
2022-12-03T03:05:22.493Z,23.30
2022-12-03T03:06:22.478Z,22.90
2022-12-03T03:07:22.480Z,21.80
2022-12-03T03:08:22.464Z,21.90
2022-12-03T03:09:22.488Z,21.80
2022-12-03T03:10:22.439Z,21.80
2022-12-03T03:11:22.424Z,22.00
2022-12-03T03:12:22.416Z,23.00
2022-12-03T03:13:22.402Z,22.60
2022-12-03T03:14:22.425Z,23.10
2022-12-03T03:15:22.416Z,24.00
2022-12-03T03:16:22.456Z,24.20
2022-12-03T03:17:22.357Z,24.90
2022-12-03T03:18:22.349Z,23.60
2022-12-03T03:19:22.368Z,23.40
2022-12-03T03:20:22.344Z,23.20
2022-12-03T03:21:22.362Z,24.50
2022-12-03T03:22:22.302Z,23.10
2022-12-03T03:23:22.290Z,25.00
2022-12-03T03:24:22.289Z,23.40
2022-12-03T03:25:22.292Z,23.00
2022-12-03T03:26:22.294Z,23.40
2022-12-03T03:27:22.288Z,23.80
2022-12-03T03:28:22.236Z,24.10
2022-12-03T03:29:22.225Z,23.70
2022-12-03T03:30:22.230Z,24.50
2022-12-03T03:31:22.340Z,25.00
2022-12-03T03:32:22.219Z,24.30
2022-12-03T03:33:22.258Z,25.00
2022-12-03T03:34:22.169Z,24.30
2022-12-03T03:35:22.161Z,23.90
2022-12-03T03:36:22.176Z,25.40
2022-12-03T03:37:22.154Z,25.40
2022-12-03T03:38:22.125Z,24.60
2022-12-03T03:39:22.177Z,25.20
2022-12-03T03:40:22.102Z,24.60
2022-12-03T03:41:22.103Z,24.40
2022-12-03T03:42:22.098Z,24.80
2022-12-03T03:43:22.091Z,24.10
2022-12-03T03:44:22.057Z,24.30
2022-12-03T03:45:27.318Z,24.30
2022-12-03T03:46:23.153Z,25.60
2022-12-03T03:47:22.027Z,24.40
2022-12-03T03:48:22.018Z,23.60
2022-12-03T03:49:22.030Z,25.20
2022-12-03T03:50:22.037Z,23.80
2022-12-03T03:51:21.981Z,23.20
2022-12-03T03:52:21.972Z,22.90
2022-12-03T03:53:21.987Z,24.30
2022-12-03T03:54:21.956Z,23.50
2022-12-03T03:55:21.953Z,23.50
2022-12-03T03:56:21.976Z,24.10
2022-12-03T03:57:21.914Z,24.80
2022-12-03T03:58:21.902Z,25.00
2022-12-03T03:59:21.893Z,25.60
2022-12-03T04:00:21.901Z,24.70
2022-12-03T04:01:21.955Z,25.80
2022-12-03T04:02:21.904Z,26.20
2022-12-03T04:03:21.848Z,25.90
2022-12-03T04:04:21.967Z,26.00
2022-12-03T04:05:21.831Z,25.60
2022-12-03T04:06:21.835Z,26.20
2022-12-03T04:07:21.804Z,26.50
2022-12-03T04:08:21.844Z,26.50
2022-12-03T04:09:21.782Z,26.20
2022-12-03T04:10:21.776Z,25.10
2022-12-03T04:11:21.778Z,25.00
2022-12-03T04:12:21.758Z,23.50
2022-12-03T04:13:21.740Z,23.80
2022-12-03T04:14:21.778Z,23.20
2022-12-03T04:15:21.720Z,22.70
2022-12-03T04:16:21.749Z,22.60
2022-12-03T04:17:21.710Z,23.80
2022-12-03T04:18:21.699Z,23.10
2022-12-03T04:19:21.701Z,21.60
2022-12-03T04:20:21.675Z,22.60
2022-12-03T04:21:21.656Z,23.20
2022-12-03T04:22:21.640Z,24.00
2022-12-03T04:23:24.956Z,26.00
2022-12-03T04:24:22.632Z,26.80
2022-12-03T04:25:21.604Z,25.80
2022-12-03T04:26:21.619Z,24.10
2022-12-03T04:27:21.589Z,23.70
2022-12-03T04:28:21.574Z,21.80
2022-12-03T04:29:21.581Z,23.10
2022-12-03T04:30:21.593Z,22.70
2022-12-03T04:31:21.645Z,23.00
2022-12-03T04:32:21.541Z,23.30
2022-12-03T04:33:21.524Z,24.20
2022-12-03T04:34:21.531Z,24.00
2022-12-03T04:35:21.603Z,23.20
2022-12-03T04:36:21.514Z,23.50
2022-12-03T04:37:21.477Z,22.40
2022-12-03T04:38:21.481Z,23.00
2022-12-03T04:39:21.462Z,22.90
2022-12-03T04:40:21.455Z,23.30
2022-12-03T04:41:21.442Z,23.70
2022-12-03T04:42:21.419Z,23.10
2022-12-03T04:43:21.422Z,23.60
2022-12-03T04:44:21.422Z,22.80
2022-12-03T04:45:21.416Z,23.00
2022-12-03T04:46:21.536Z,23.20
2022-12-03T04:47:21.383Z,23.30
2022-12-03T04:48:21.350Z,23.20
2022-12-03T04:49:21.343Z,23.00
2022-12-03T04:50:21.367Z,22.90
2022-12-03T04:51:21.324Z,22.70
2022-12-03T04:52:21.333Z,23.00
2022-12-03T04:53:21.303Z,23.70
2022-12-03T04:54:21.303Z,24.00
2022-12-03T04:55:21.276Z,24.40
2022-12-03T04:56:21.286Z,23.60
2022-12-03T04:57:21.293Z,24.50
2022-12-03T04:58:21.252Z,25.10
2022-12-03T04:59:21.232Z,25.10
2022-12-03T05:00:21.222Z,24.90
2022-12-03T05:01:21.235Z,24.10
2022-12-03T05:02:21.276Z,24.20
2022-12-03T05:03:21.201Z,24.40
2022-12-03T05:04:21.190Z,24.80
2022-12-03T05:05:21.164Z,23.90
2022-12-03T05:06:21.200Z,23.80
2022-12-03T05:07:21.145Z,24.00
2022-12-03T05:08:21.161Z,26.20
2022-12-03T05:09:21.146Z,25.70
2022-12-03T05:10:21.123Z,27.60
2022-12-03T05:11:21.097Z,25.60
2022-12-03T05:12:21.093Z,24.10
2022-12-03T05:13:21.076Z,23.40
2022-12-03T05:14:21.070Z,25.10
2022-12-03T05:15:21.087Z,25.40
2022-12-03T05:16:21.166Z,24.50
2022-12-03T05:17:21.032Z,25.80
2022-12-03T05:18:21.018Z,23.70
2022-12-03T05:19:21.016Z,25.40
2022-12-03T05:20:21.008Z,24.50
2022-12-03T05:21:21.035Z,25.60
2022-12-03T05:22:21.031Z,25.00
2022-12-03T05:23:20.966Z,26.10
2022-12-03T05:24:20.953Z,26.20
2022-12-03T05:25:20.949Z,27.50
2022-12-03T05:26:20.947Z,27.70
2022-12-03T05:27:23.963Z,27.80
2022-12-03T05:28:20.942Z,25.80
2022-12-03T05:29:20.899Z,26.20
2022-12-03T05:30:20.899Z,26.60
2022-12-03T05:31:21.018Z,27.40
2022-12-03T05:32:20.895Z,26.80
2022-12-03T05:33:20.906Z,26.10
2022-12-03T05:34:20.842Z,24.60
2022-12-03T05:35:20.832Z,25.60
2022-12-03T05:36:20.823Z,25.00
2022-12-03T05:37:20.825Z,26.20
2022-12-03T05:38:20.840Z,22.90
2022-12-03T05:39:20.814Z,22.50
2022-12-03T05:40:20.785Z,22.50
2022-12-03T05:41:20.796Z,23.00
2022-12-03T05:42:20.782Z,21.30
2022-12-03T05:43:20.762Z,19.60
2022-12-03T05:44:20.971Z,20.30
2022-12-03T05:45:20.765Z,19.50
2022-12-03T05:46:20.801Z,19.60
2022-12-03T05:47:20.712Z,24.70
2022-12-03T05:48:20.720Z,23.00
2022-12-03T05:49:20.700Z,24.90
2022-12-03T05:50:20.684Z,24.90
2022-12-03T05:51:20.703Z,21.60
2022-12-03T05:52:20.661Z,22.40
2022-12-03T05:53:20.632Z,20.40
2022-12-03T05:54:20.676Z,19.00
2022-12-03T05:55:20.633Z,19.20
2022-12-03T05:56:20.615Z,19.60
2022-12-03T05:57:20.621Z,19.20
2022-12-03T05:58:20.578Z,19.00
2022-12-03T05:59:20.598Z,18.60
2022-12-03T06:00:20.566Z,18.70
2022-12-03T06:01:20.571Z,18.90
2022-12-03T06:02:20.710Z,18.80
2022-12-03T06:03:20.792Z,18.70
2022-12-03T06:04:20.512Z,18.80
2022-12-03T06:05:20.528Z,19.00
2022-12-03T06:06:20.505Z,19.30
2022-12-03T06:07:20.487Z,19.30
2022-12-03T06:08:20.467Z,18.90
2022-12-03T06:09:20.476Z,18.30
2022-12-03T06:10:20.477Z,18.30
2022-12-03T06:11:20.443Z,18.90
2022-12-03T06:12:20.432Z,19.00
2022-12-03T06:13:20.433Z,20.20
2022-12-03T06:14:20.401Z,21.30
2022-12-03T06:15:20.450Z,20.70
2022-12-03T06:16:20.404Z,20.20
2022-12-03T06:17:20.380Z,20.90
2022-12-03T06:18:20.388Z,20.90
2022-12-03T06:19:20.359Z,21.10
2022-12-03T06:20:20.358Z,21.40
2022-12-03T06:21:20.374Z,20.70
2022-12-03T06:22:20.340Z,21.20
2022-12-03T06:23:20.313Z,20.40
2022-12-03T06:24:20.321Z,19.00
2022-12-03T06:25:20.278Z,19.90
2022-12-03T06:26:20.285Z,22.30
2022-12-03T06:27:20.316Z,23.50
2022-12-03T06:28:20.255Z,21.40
2022-12-03T06:29:20.257Z,19.90
2022-12-03T06:30:20.250Z,20.10
2022-12-03T06:31:20.352Z,20.30
2022-12-03T06:32:20.203Z,19.90
2022-12-03T06:33:20.256Z,20.40
2022-12-03T06:34:20.190Z,20.70
2022-12-03T06:35:20.193Z,20.90
2022-12-03T06:36:23.156Z,20.50
2022-12-03T06:37:20.182Z,20.60
2022-12-03T06:38:20.135Z,21.30
2022-12-03T06:39:20.138Z,22.40
2022-12-03T06:40:20.148Z,22.10
2022-12-03T06:41:20.133Z,21.40
2022-12-03T06:42:20.108Z,23.20
2022-12-03T06:43:20.087Z,22.20
2022-12-03T06:44:20.075Z,21.00
2022-12-03T06:45:20.100Z,22.20
2022-12-03T06:46:20.166Z,21.30
2022-12-03T06:47:20.051Z,23.00
2022-12-03T06:48:20.043Z,22.70
2022-12-03T06:49:20.012Z,22.20
2022-12-03T06:50:20.001Z,22.20
2022-12-03T06:51:20.027Z,25.30
2022-12-03T06:52:20.033Z,23.50
2022-12-03T06:53:19.990Z,22.20
2022-12-03T06:54:19.960Z,22.70
2022-12-03T06:55:19.946Z,23.50
2022-12-03T06:56:22.284Z,24.10
2022-12-03T06:57:19.956Z,24.10
2022-12-03T06:58:19.962Z,23.90
2022-12-03T06:59:19.912Z,23.80
2022-12-03T07:00:19.922Z,23.20
2022-12-03T07:01:20.915Z,24.40
2022-12-03T07:02:19.870Z,21.30
2022-12-03T07:03:20.016Z,21.50
2022-12-03T07:04:19.858Z,20.60
2022-12-03T07:05:19.882Z,21.70
2022-12-03T07:06:19.824Z,22.00
2022-12-03T07:07:19.812Z,21.80
2022-12-03T07:08:19.896Z,22.80
2022-12-03T07:09:19.802Z,24.10
2022-12-03T07:10:19.816Z,26.20
2022-12-03T07:11:19.787Z,21.90
2022-12-03T07:12:19.757Z,21.10
2022-12-03T07:13:19.768Z,21.30
2022-12-03T07:14:19.839Z,21.40
2022-12-03T07:15:19.775Z,21.50
2022-12-03T07:16:19.770Z,22.20
2022-12-03T07:17:19.715Z,22.00
2022-12-03T07:18:19.691Z,21.70
2022-12-03T07:19:19.680Z,21.20
2022-12-03T07:20:19.685Z,21.40
2022-12-03T07:21:19.704Z,23.10
2022-12-03T07:22:19.672Z,22.00
2022-12-03T07:23:19.636Z,22.40
2022-12-03T07:24:19.624Z,21.50
2022-12-03T07:25:23.047Z,21.20
2022-12-03T07:26:19.621Z,20.00
2022-12-03T07:27:19.654Z,19.90
2022-12-03T07:28:19.603Z,19.30
2022-12-03T07:29:19.573Z,19.80
2022-12-03T07:30:19.579Z,20.60
2022-12-03T07:31:19.622Z,21.30
2022-12-03T07:32:19.539Z,21.70
2022-12-03T07:33:19.569Z,20.60
2022-12-03T07:34:19.534Z,20.80
2022-12-03T07:35:19.503Z,21.20
2022-12-03T07:36:19.492Z,20.70
2022-12-03T07:37:23.076Z,20.20
2022-12-03T07:38:19.496Z,20.90
2022-12-03T07:39:19.502Z,21.30
2022-12-03T07:40:19.446Z,20.90
2022-12-03T07:41:19.437Z,21.40
2022-12-03T07:42:19.453Z,20.20
2022-12-03T07:43:19.428Z,19.90
2022-12-03T07:44:19.412Z,20.60
2022-12-03T07:45:19.429Z,19.90
2022-12-03T07:46:19.439Z,19.70
2022-12-03T07:47:19.394Z,20.00
2022-12-03T07:48:19.358Z,19.30
2022-12-03T07:49:19.345Z,20.60
2022-12-03T07:50:19.441Z,21.10
2022-12-03T07:51:19.365Z,21.50
2022-12-03T07:52:19.315Z,22.00
2022-12-03T07:53:19.306Z,20.40
2022-12-03T07:54:19.330Z,20.60
2022-12-03T07:55:19.288Z,20.70
2022-12-03T07:56:19.287Z,20.10
2022-12-03T07:57:19.292Z,20.30
2022-12-03T07:58:19.245Z,19.40
2022-12-03T07:59:19.233Z,20.80
2022-12-03T08:00:19.238Z,18.70
2022-12-03T08:01:19.324Z,19.70
2022-12-03T08:02:21.636Z,19.10
2022-12-03T08:03:19.221Z,20.10
2022-12-03T08:04:19.179Z,19.40
2022-12-03T08:05:19.169Z,19.10
2022-12-03T08:06:19.177Z,20.20
2022-12-03T08:07:19.155Z,20.30
2022-12-03T08:08:19.200Z,20.40
2022-12-03T08:09:19.173Z,20.10
2022-12-03T08:10:19.116Z,19.50
2022-12-03T08:11:19.120Z,18.50
2022-12-03T08:12:19.090Z,19.20
2022-12-03T08:13:19.094Z,21.70
2022-12-03T08:14:19.091Z,19.20
2022-12-03T08:15:19.074Z,19.50
2022-12-03T08:16:19.179Z,18.90
2022-12-03T08:17:19.081Z,19.60
2022-12-03T08:18:19.040Z,19.80
2022-12-03T08:19:19.020Z,17.90
2022-12-03T08:20:19.002Z,18.30
2022-12-03T08:21:19.059Z,21.90
2022-12-03T08:22:18.981Z,18.90
2022-12-03T08:23:18.987Z,19.90
2022-12-03T08:24:18.962Z,19.20
2022-12-03T08:25:18.956Z,19.10
2022-12-03T08:26:18.934Z,18.20
2022-12-03T08:27:18.969Z,19.20
2022-12-03T08:28:18.956Z,19.90
2022-12-03T08:29:18.939Z,21.10
2022-12-03T08:30:18.950Z,23.40
2022-12-03T08:31:18.939Z,20.20
2022-12-03T08:32:18.888Z,21.70
2022-12-03T08:33:18.878Z,20.10
2022-12-03T08:34:18.879Z,20.50
2022-12-03T08:35:18.868Z,20.40
2022-12-03T08:36:18.845Z,20.30
2022-12-03T08:37:18.809Z,21.50
2022-12-03T08:38:18.801Z,22.40
2022-12-03T08:39:18.793Z,20.30
2022-12-03T08:40:18.798Z,20.00
2022-12-03T08:41:18.772Z,22.10
2022-12-03T08:42:18.769Z,24.60
2022-12-03T08:43:18.742Z,22.30
2022-12-03T08:44:18.753Z,20.80
2022-12-03T08:45:18.746Z,20.20
2022-12-03T08:46:18.824Z,20.50
2022-12-03T08:47:18.709Z,20.30
2022-12-03T08:48:18.702Z,19.90
2022-12-03T08:49:18.675Z,20.10
2022-12-03T08:50:18.682Z,20.10
2022-12-03T08:51:18.681Z,20.20
2022-12-03T08:52:18.673Z,19.60
2022-12-03T08:53:18.650Z,20.90
2022-12-03T08:54:18.619Z,22.80
2022-12-03T08:55:18.623Z,21.50
2022-12-03T08:56:18.599Z,20.90
2022-12-03T08:57:18.625Z,22.50
2022-12-03T08:58:18.580Z,20.40
2022-12-03T08:59:18.574Z,22.40
2022-12-03T09:00:18.578Z,23.20
2022-12-03T09:01:18.675Z,23.10
2022-12-03T09:02:18.550Z,23.30
2022-12-03T09:03:18.550Z,26.50
2022-12-03T09:04:18.671Z,24.10
2022-12-03T09:05:18.516Z,21.20
2022-12-03T09:06:18.503Z,21.60
2022-12-03T09:07:18.508Z,23.40
2022-12-03T09:08:18.599Z,23.70
2022-12-03T09:09:18.498Z,22.10
2022-12-03T09:10:18.456Z,26.90
2022-12-03T09:11:18.460Z,26.70
2022-12-03T09:12:18.460Z,29.00
2022-12-03T09:13:18.414Z,31.80
2022-12-03T09:14:19.072Z,27.00
2022-12-03T09:15:18.412Z,21.00
2022-12-03T09:16:19.374Z,22.80
2022-12-03T09:17:18.405Z,23.10
2022-12-03T09:18:18.354Z,22.90
2022-12-03T09:19:18.347Z,23.40
2022-12-03T09:20:18.352Z,21.20
2022-12-03T09:21:18.345Z,22.20
2022-12-03T09:22:18.343Z,22.00
2022-12-03T09:23:18.333Z,21.10
2022-12-03T09:24:18.288Z,22.50
2022-12-03T09:25:18.280Z,20.60
2022-12-03T09:26:18.291Z,19.50
2022-12-03T09:27:18.291Z,21.20
2022-12-03T09:28:18.270Z,19.90
2022-12-03T09:29:18.229Z,21.00
2022-12-03T09:30:18.219Z,21.60
2022-12-03T09:31:18.282Z,18.00
2022-12-03T09:32:18.926Z,19.00
2022-12-03T09:33:18.205Z,17.90
2022-12-03T09:34:18.195Z,18.70
2022-12-03T09:35:18.167Z,17.70
2022-12-03T09:36:18.154Z,19.70
2022-12-03T09:37:18.173Z,17.40
2022-12-03T09:38:18.187Z,16.90
2022-12-03T09:39:18.125Z,16.20
2022-12-03T09:40:18.141Z,16.80
2022-12-03T09:41:18.095Z,18.90
2022-12-03T09:42:18.087Z,17.90
2022-12-03T09:43:18.096Z,17.90
2022-12-03T09:44:18.496Z,19.00
2022-12-03T09:45:18.088Z,18.90
2022-12-03T09:46:18.099Z,18.70
2022-12-03T09:47:18.046Z,19.60
2022-12-03T09:48:18.020Z,20.30
2022-12-03T09:49:18.030Z,20.50
2022-12-03T09:50:18.006Z,19.60
2022-12-03T09:51:18.012Z,21.90
2022-12-03T09:52:17.979Z,21.30
2022-12-03T09:53:17.962Z,19.70
2022-12-03T09:54:17.972Z,20.00
2022-12-03T09:55:17.977Z,20.50
2022-12-03T09:56:17.946Z,24.20
2022-12-03T09:57:17.966Z,27.70
2022-12-03T09:58:17.909Z,23.50
2022-12-03T09:59:17.896Z,21.00
2022-12-03T10:00:17.910Z,19.30
2022-12-03T10:01:18.040Z,19.40
2022-12-03T10:02:17.871Z,20.30
2022-12-03T10:03:17.899Z,20.10
2022-12-03T10:04:17.938Z,21.80
2022-12-03T10:05:17.843Z,22.30
2022-12-03T10:06:17.832Z,23.60
2022-12-03T10:07:17.855Z,23.40
2022-12-03T10:08:17.852Z,20.60
2022-12-03T10:09:17.850Z,19.80
2022-12-03T10:10:17.796Z,20.80
2022-12-03T10:11:17.764Z,21.70
2022-12-03T10:12:17.747Z,20.20
2022-12-03T10:13:21.026Z,20.40
2022-12-03T10:14:18.741Z,25.70
2022-12-03T10:15:17.786Z,21.50
2022-12-03T10:16:17.763Z,22.30
2022-12-03T10:17:17.768Z,22.30
2022-12-03T10:18:17.682Z,23.50
2022-12-03T10:19:17.690Z,22.80
2022-12-03T10:20:17.658Z,21.60
2022-12-03T10:21:17.670Z,22.40
2022-12-03T10:22:17.633Z,20.50
2022-12-03T10:23:17.639Z,21.20
2022-12-03T10:24:17.647Z,22.70
2022-12-03T10:25:17.623Z,25.50
2022-12-03T10:26:17.606Z,24.90
2022-12-03T10:27:17.631Z,20.90
2022-12-03T10:28:17.568Z,18.60
2022-12-03T10:29:17.556Z,20.40
2022-12-03T10:30:17.566Z,20.30
2022-12-03T10:31:17.605Z,21.90
2022-12-03T10:32:17.530Z,21.90
2022-12-03T10:33:19.052Z,20.70
2022-12-03T10:34:17.507Z,20.30
2022-12-03T10:35:17.490Z,20.70
2022-12-03T10:36:17.485Z,21.90
2022-12-03T10:37:17.482Z,21.30
2022-12-03T10:38:17.457Z,24.10
2022-12-03T10:39:17.472Z,23.20
2022-12-03T10:40:17.490Z,22.40
2022-12-03T10:41:17.428Z,23.50
2022-12-03T10:42:17.427Z,22.10
2022-12-03T10:43:17.427Z,18.80
2022-12-03T10:44:17.409Z,19.90
2022-12-03T10:45:17.399Z,20.40
2022-12-03T10:46:17.604Z,20.50
2022-12-03T10:47:17.566Z,23.10
2022-12-03T10:48:17.372Z,23.10
2022-12-03T10:49:17.331Z,24.50
2022-12-03T10:50:17.435Z,21.90
2022-12-03T10:51:17.334Z,19.90
2022-12-03T10:52:22.606Z,20.40
2022-12-03T10:53:18.316Z,22.10
2022-12-03T10:54:17.306Z,20.50
2022-12-03T10:55:17.273Z,25.10
2022-12-03T10:56:17.252Z,25.10
2022-12-03T10:57:17.270Z,23.40
2022-12-03T10:58:17.273Z,23.60
2022-12-03T10:59:17.232Z,21.80
2022-12-03T11:00:17.365Z,22.00
2022-12-03T11:01:17.286Z,23.00
2022-12-03T11:02:17.184Z,23.20
2022-12-03T11:03:17.287Z,23.50
2022-12-03T11:04:17.181Z,21.00
2022-12-03T11:05:17.170Z,19.90
2022-12-03T11:06:17.141Z,19.60
2022-12-03T11:07:17.143Z,19.60
2022-12-03T11:08:17.283Z,18.30
2022-12-03T11:09:17.106Z,19.80
2022-12-03T11:10:17.279Z,17.60
2022-12-03T11:11:17.087Z,17.20
2022-12-03T11:12:17.072Z,17.20
2022-12-03T11:13:17.062Z,17.80
2022-12-03T11:14:22.820Z,20.10
2022-12-03T11:15:18.056Z,19.50
2022-12-03T11:16:17.109Z,19.70
2022-12-03T11:17:17.017Z,22.10
2022-12-03T11:18:17.012Z,20.10
2022-12-03T11:19:17.021Z,20.00
2022-12-03T11:20:22.347Z,20.70
2022-12-03T11:21:18.004Z,20.20
2022-12-03T11:22:17.002Z,20.70
2022-12-03T11:23:16.950Z,21.90
2022-12-03T11:24:16.939Z,19.70
2022-12-03T11:25:16.959Z,22.20
2022-12-03T11:26:19.310Z,26.30
2022-12-03T11:27:16.921Z,23.00
2022-12-03T11:28:16.933Z,19.50
2022-12-03T11:29:16.883Z,18.20
2022-12-03T11:30:16.884Z,18.50
2022-12-03T11:31:16.976Z,18.30
2022-12-03T11:32:16.849Z,18.10
2022-12-03T11:33:16.847Z,17.50
2022-12-03T11:34:16.865Z,17.10
2022-12-03T11:35:16.822Z,18.00
2022-12-03T11:36:16.802Z,17.90
2022-12-03T11:37:16.814Z,18.20
2022-12-03T11:38:16.794Z,18.20
2022-12-03T11:39:16.781Z,20.80
2022-12-03T11:40:16.794Z,19.90
2022-12-03T11:41:16.746Z,18.00
2022-12-03T11:42:16.767Z,17.50
2022-12-03T11:43:16.723Z,18.50
2022-12-03T11:44:16.726Z,17.70
2022-12-03T11:45:16.723Z,18.30
2022-12-03T11:46:16.819Z,18.20
2022-12-03T11:47:16.678Z,18.80
2022-12-03T11:48:16.714Z,21.50
2022-12-03T11:49:16.657Z,22.80
2022-12-03T11:50:16.650Z,27.10
2022-12-03T11:51:16.635Z,21.70
2022-12-03T11:52:16.676Z,23.50
2022-12-03T11:53:16.641Z,24.60
2022-12-03T11:54:16.615Z,23.60
2022-12-03T11:55:16.596Z,21.70
2022-12-03T11:56:16.597Z,20.50
2022-12-03T11:57:16.566Z,18.40
2022-12-03T11:58:16.604Z,18.40
2022-12-03T11:59:16.546Z,20.90
2022-12-03T12:00:16.531Z,20.00
2022-12-03T12:01:16.540Z,22.10
2022-12-03T12:02:16.558Z,21.30
2022-12-03T12:03:16.662Z,18.90
2022-12-03T12:04:16.587Z,20.80
2022-12-03T12:05:16.484Z,19.70
2022-12-03T12:06:25.403Z,22.10
2022-12-03T12:07:16.459Z,23.00
2022-12-03T12:08:16.554Z,23.10
2022-12-03T12:09:16.431Z,22.60
2022-12-03T12:10:16.433Z,25.90
2022-12-03T12:11:16.430Z,23.30
2022-12-03T12:12:16.434Z,21.90
2022-12-03T12:13:16.399Z,19.90
2022-12-03T12:14:16.420Z,20.10
2022-12-03T12:15:16.365Z,18.80
2022-12-03T12:16:16.447Z,18.10
2022-12-03T12:17:16.368Z,20.70
2022-12-03T12:18:16.381Z,20.40
2022-12-03T12:19:16.382Z,20.50
2022-12-03T12:20:16.338Z,19.80
2022-12-03T12:21:16.341Z,22.80
2022-12-03T12:22:16.305Z,22.30
2022-12-03T12:23:16.304Z,21.20
2022-12-03T12:24:16.269Z,22.30
2022-12-03T12:25:16.266Z,19.80
2022-12-03T12:26:16.300Z,21.20
2022-12-03T12:27:16.291Z,19.80
2022-12-03T12:28:16.239Z,19.30
2022-12-03T12:29:16.207Z,19.90
2022-12-03T12:30:16.209Z,24.80
2022-12-03T12:31:16.273Z,26.40
2022-12-03T12:32:16.208Z,23.60
2022-12-03T12:33:16.221Z,22.70
2022-12-03T12:34:16.177Z,23.10
2022-12-03T12:35:16.144Z,23.80
2022-12-03T12:36:16.136Z,23.40
2022-12-03T12:37:16.144Z,24.40
2022-12-03T12:38:16.151Z,24.60
2022-12-03T12:39:16.108Z,24.40
2022-12-03T12:40:16.119Z,21.00
2022-12-03T12:41:16.237Z,19.30
2022-12-03T12:42:16.080Z,20.50
2022-12-03T12:43:21.939Z,19.90
2022-12-03T12:44:17.109Z,21.00
2022-12-03T12:45:16.051Z,20.80
2022-12-03T12:46:46.657Z,20.80
2022-12-03T12:47:17.113Z,20.90
2022-12-03T12:48:16.019Z,20.60
2022-12-03T12:49:15.986Z,19.50
2022-12-03T12:50:16.002Z,19.30
2022-12-03T12:51:15.997Z,19.90
2022-12-03T12:52:15.992Z,20.50
2022-12-03T12:53:15.947Z,19.30